Time;durP1;ratioP1;P1;durP2;ratioP2;P2;SDS_P1;SDS_P2;PMS_P1;PMS_P2;Temp;Humidity;BMP_temperature;BMP_pressure;BME280_temperature;BME280_humidity;BME280_pressure;Samples;Min_cycle;Max_cycle;Signal;HPM_P1;HPM_P2
2023/10/06 00:01:49;;;;;;;9.25;5.00;;;14.50;99.90;;;;;;5098003;28;20058;-64
2023/10/06 00:04:16;;;;;;;6.72;3.33;;;14.50;99.90;;;;;;5096967;28;20138;-65
2023/10/06 00:06:42;;;;;;;11.25;3.80;;;14.50;99.90;;;;;;5097679;28;20414;-64
2023/10/06 00:09:09;;;;;;;10.65;4.25;;;14.50;99.90;;;;;;5097607;28;20123;-64
2023/10/06 00:11:40;;;;;;;13.43;3.97;;;14.50;99.90;;;;;;5095043;28;20137;-64
2023/10/06 00:14:18;;;;;;;6.00;3.70;;;14.50;99.90;;;;;;5097085;28;20044;-64
2023/10/06 00:16:44;;;;;;;15.45;5.25;;;14.50;99.90;;;;;;5096671;28;20051;-64
2023/10/06 00:19:33;;;;;;;9.77;3.78;;;14.50;99.90;;;;;;5097713;28;20109;-64
2023/10/06 00:24:58;;;;;;;14.00;5.47;;;14.50;99.90;;;;;;5078117;28;20056;-64
2023/10/06 00:27:29;;;;;;;12.05;4.45;;;14.50;99.90;;;;;;5079195;28;20052;-63
2023/10/06 00:29:56;;;;;;;7.22;4.90;;;14.50;99.90;;;;;;5096395;28;20086;-64
2023/10/06 00:32:22;;;;;;;9.07;4.22;;;14.40;99.90;;;;;;5097326;28;20052;-64
2023/10/06 00:35:09;;;;;;;8.85;5.03;;;14.40;99.90;;;;;;5097204;28;20040;-63
2023/10/06 00:37:36;;;;;;;10.27;4.43;;;14.40;99.90;;;;;;5096395;28;20056;-64
2023/10/06 00:40:09;;;;;;;12.13;5.05;;;14.40;99.90;;;;;;5097352;28;20051;-64
2023/10/06 00:42:35;;;;;;;10.25;5.35;;;14.50;99.90;;;;;;5095758;28;20048;-63
2023/10/06 00:45:01;;;;;;;7.70;4.82;;;14.50;99.90;;;;;;5079331;28;20112;-63
2023/10/06 00:47:38;;;;;;;9.20;5.10;;;14.40;99.90;;;;;;5096524;28;20072;-65
2023/10/06 00:50:12;;;;;;;12.23;5.05;;;14.40;99.90;;;;;;5096433;28;20048;-63
2023/10/06 00:52:39;;;;;;;7.55;4.93;;;14.40;99.90;;;;;;5097237;28;20125;-63
2023/10/06 00:55:11;;;;;;;8.98;6.03;;;14.40;99.90;;;;;;5095985;28;20101;-63
2023/10/06 00:57:38;;;;;;;9.95;5.40;;;14.40;99.90;;;;;;5097030;28;20036;-63
2023/10/06 01:00:16;;;;;;;12.63;5.28;;;14.40;99.90;;;;;;5078147;28;20089;-64
2023/10/06 01:02:43;;;;;;;11.48;5.05;;;14.40;99.90;;;;;;5096968;28;20177;-63
2023/10/06 01:05:09;;;;;;;10.85;5.57;;;14.40;99.90;;;;;;5097292;28;20040;-64
2023/10/06 01:07:36;;;;;;;10.82;5.72;;;14.40;99.90;;;;;;5095930;28;20082;-63
2023/10/06 01:10:07;;;;;;;12.15;6.25;;;14.40;99.90;;;;;;5097105;28;20081;-63
2023/10/06 01:12:33;;;;;;;10.57;5.40;;;14.50;99.90;;;;;;5095444;28;20051;-64
2023/10/06 01:17:58;;;;;;;9.55;5.45;;;14.40;99.90;;;;;;5035074;28;20063;-64
2023/10/06 01:20:41;;;;;;;8.57;5.25;;;14.50;99.90;;;;;;5095970;28;20075;-64
2023/10/06 01:23:28;;;;;;;;;;;14.40;99.90;;;;;;5099447;28;20134;-64
2023/10/06 01:25:59;;;;;;;11.85;5.82;;;14.50;99.90;;;;;;5099142;28;20339;-64
2023/10/06 01:28:25;;;;;;;15.27;5.60;;;14.50;99.90;;;;;;5100155;28;20086;-64
2023/10/06 01:30:54;;;;;;;13.50;5.68;;;14.50;99.90;;;;;;5100452;28;20048;-64
2023/10/06 01:33:19;;;;;;;9.05;5.57;;;14.40;99.90;;;;;;5080915;28;20051;-64
2023/10/06 01:35:45;;;;;;;11.82;5.47;;;14.40;99.90;;;;;;5082010;28;20056;-64
2023/10/06 01:38:23;;;;;;;11.60;5.90;;;14.40;99.90;;;;;;5098868;28;20047;-64
2023/10/06 01:40:52;;;;;;;9.73;4.95;;;14.40;99.90;;;;;;5099906;28;20559;-64
2023/10/06 01:43:22;;;;;;;9.75;5.47;;;14.40;99.90;;;;;;5099749;28;20072;-64
2023/10/06 01:45:49;;;;;;;11.93;5.13;;;14.40;99.90;;;;;;5099371;28;20484;-65
2023/10/06 01:50:50;;;;;;;8.60;5.20;;;14.40;99.90;;;;;;5081369;28;20073;-64
2023/10/06 01:53:18;;;;;;;11.27;5.15;;;14.40;99.90;;;;;;5100014;28;20058;-64
2023/10/06 01:55:54;;;;;;;11.18;5.55;;;14.40;99.90;;;;;;5098389;28;20115;-64
2023/10/06 01:58:20;;;;;;;8.95;5.35;;;14.30;99.90;;;;;;5099083;28;20052;-63
2023/10/06 02:00:48;;;;;;;13.77;5.32;;;14.40;99.90;;;;;;5099744;28;20082;-64
2023/10/06 02:03:18;;;;;;;10.27;4.63;;;14.30;99.90;;;;;;5098469;28;20123;-64
2023/10/06 02:05:44;;;;;;;10.90;5.28;;;14.30;99.90;;;;;;5099455;28;20040;-63
2023/10/06 02:08:10;;;;;;;10.63;5.40;;;14.30;99.90;;;;;;5098190;28;20040;-64
2023/10/06 02:10:37;;;;;;;12.38;5.32;;;14.30;99.90;;;;;;5099154;28;20077;-64
2023/10/06 02:13:05;;;;;;;13.00;5.28;;;14.30;99.90;;;;;;5098718;28;20052;-64
2023/10/06 02:15:32;;;;;;;14.02;5.57;;;14.30;99.90;;;;;;5098711;28;20071;-64
2023/10/06 02:17:58;;;;;;;9.07;4.93;;;14.30;99.90;;;;;;5099261;28;20052;-64
2023/10/06 02:22:53;;;;;;;12.73;6.80;;;14.40;99.90;;;;;;5097985;28;20402;-64
2023/10/06 02:25:20;;;;;;;15.23;6.85;;;14.50;99.90;;;;;;5095982;28;20408;-64
2023/10/06 02:27:47;;;;;;;12.52;5.60;;;14.50;99.90;;;;;;5098914;28;20060;-64
2023/10/06 02:30:37;;;;;;;10.25;5.22;;;14.40;99.90;;;;;;5080568;28;20092;-64
2023/10/06 02:33:06;;;;;;;11.23;5.15;;;14.40;99.90;;;;;;5079223;28;20048;-63
2023/10/06 02:35:35;;;;;;;11.50;5.47;;;14.40;99.90;;;;;;5098767;28;20047;-64
2023/10/06 02:38:05;;;;;;;11.07;5.15;;;14.40;99.90;;;;;;5078938;28;20054;-63
2023/10/06 02:40:43;;;;;;;11.02;5.20;;;14.30;99.90;;;;;;5080603;28;20116;-64
2023/10/06 02:43:20;;;;;;;10.73;5.10;;;14.30;99.90;;;;;;5080144;28;20048;-64
2023/10/06 02:45:46;;;;;;;11.85;5.88;;;14.30;99.90;;;;;;5098078;28;20083;-64
2023/10/06 02:48:22;;;;;;;10.55;6.05;;;14.30;99.90;;;;;;5098689;28;20047;-64
2023/10/06 02:50:49;;;;;;;14.65;5.50;;;14.30;99.90;;;;;;5097694;28;20050;-64
2023/10/06 02:53:20;;;;;;;10.73;5.40;;;14.30;99.90;;;;;;5098289;28;20051;-64
2023/10/06 02:55:49;;;;;;;8.02;5.20;;;14.30;99.90;;;;;;5079325;28;20075;-63
2023/10/06 02:58:27;;;;;;;11.27;5.22;;;14.30;99.90;;;;;;5098121;28;20181;-64
2023/10/06 03:00:55;;;;;;;8.65;4.45;;;14.30;99.90;;;;;;5098238;28;20491;-64
2023/10/06 03:03:26;;;;;;;9.85;4.85;;;14.20;99.90;;;;;;5097489;28;20083;-64
2023/10/06 03:05:53;;;;;;;14.68;5.35;;;14.30;99.90;;;;;;5098588;28;20044;-64
2023/10/06 03:08:27;;;;;;;9.63;5.45;;;14.20;99.90;;;;;;5096756;28;20042;-64
2023/10/06 03:10:52;;;;;;;9.50;5.05;;;14.30;99.90;;;;;;5098279;28;20384;-64
2023/10/06 03:13:33;;;;;;;17.70;5.45;;;14.30;99.90;;;;;;5098005;28;20093;-64
2023/10/06 03:15:59;;;;;;;10.65;5.53;;;14.30;99.90;;;;;;5096842;28;20044;-64
2023/10/06 03:18:25;;;;;;;14.40;7.35;;;14.20;99.90;;;;;;5097038;28;20418;-64
2023/10/06 03:20:59;;;;;;;13.82;6.13;;;14.40;99.90;;;;;;5097017;28;20077;-64
2023/10/06 03:23:36;;;;;;;11.13;5.10;;;14.30;99.90;;;;;;5079598;28;20058;-63
2023/10/06 03:26:04;;;;;;;10.63;5.22;;;14.30;99.90;;;;;;5097560;28;20055;-64
2023/10/06 03:28:36;;;;;;;10.43;5.18;;;14.20;99.90;;;;;;5097373;28;20048;-65
2023/10/06 03:31:21;;;;;;;12.13;4.57;;;14.20;99.90;;;;;;5079639;28;20043;-64
2023/10/06 03:33:54;;;;;;;12.23;4.93;;;14.20;99.90;;;;;;5096659;28;20047;-64
2023/10/06 03:36:37;;;;;;;9.20;5.07;;;14.20;99.90;;;;;;5097376;28;20688;-64
2023/10/06 03:39:10;;;;;;;11.10;5.22;;;14.10;99.90;;;;;;5097711;28;20043;-64
2023/10/06 03:41:37;;;;;;;11.48;5.65;;;14.10;99.90;;;;;;5078715;28;20048;-63
2023/10/06 03:44:04;;;;;;;14.55;6.15;;;14.00;99.90;;;;;;5097734;28;20117;-65
2023/10/06 03:46:37;;;;;;;10.60;5.95;;;14.00;99.90;;;;;;5095655;28;20044;-64
2023/10/06 03:49:07;;;;;;;14.70;5.70;;;14.10;99.90;;;;;;5096206;28;20138;-65
2023/10/06 03:51:40;;;;;;;13.05;5.65;;;14.00;99.90;;;;;;5096661;28;20582;-64
2023/10/06 03:54:07;;;;;;;10.65;5.07;;;14.10;99.90;;;;;;5097224;28;20048;-64
2023/10/06 03:56:33;;;;;;;12.90;5.18;;;14.00;99.90;;;;;;5097464;28;20052;-64
2023/10/06 03:59:00;;;;;;;10.18;5.32;;;14.10;99.90;;;;;;5096308;28;20058;-64
2023/10/06 04:01:26;;;;;;;10.55;5.53;;;14.00;99.90;;;;;;5079586;28;20048;-63
2023/10/06 04:03:53;;;;;;;14.55;5.47;;;14.00;99.90;;;;;;5096447;28;20055;-64
2023/10/06 04:06:23;;;;;;;7.55;4.63;;;14.00;99.90;;;;;;5097186;28;20048;-64
2023/10/06 04:08:49;;;;;;;10.68;5.72;;;14.00;99.90;;;;;;5079591;28;20861;-63
2023/10/06 04:11:15;;;;;;;11.75;5.15;;;13.90;99.90;;;;;;5096990;28;20036;-64
2023/10/06 04:13:41;;;;;;;9.52;4.95;;;13.90;99.90;;;;;;5079037;28;20082;-64
2023/10/06 04:16:07;;;;;;;14.25;6.50;;;13.90;99.90;;;;;;5078407;28;20052;-63
2023/10/06 04:18:33;;;;;;;9.57;4.80;;;13.90;99.90;;;;;;5097746;28;20062;-63
2023/10/06 04:20:59;;;;;;;10.20;4.55;;;13.90;99.90;;;;;;5077787;28;20055;-64
2023/10/06 04:23:25;;;;;;;9.95;4.68;;;13.90;99.90;;;;;;5097803;28;20059;-63
2023/10/06 04:25:55;;;;;;;10.38;4.78;;;13.90;99.90;;;;;;5097093;28;20044;-63
2023/10/06 04:28:25;;;;;;;10.93;4.30;;;13.90;99.90;;;;;;5096906;28;20051;-64
2023/10/06 04:30:50;;;;;;;8.13;4.57;;;13.90;99.90;;;;;;5097589;28;20059;-63
2023/10/06 04:33:21;;;;;;;14.15;5.00;;;13.80;99.90;;;;;;5096260;28;20040;-64
2023/10/06 04:35:55;;;;;;;10.93;5.03;;;13.80;99.90;;;;;;5097008;28;20051;-63
2023/10/06 04:38:21;;;;;;;12.10;5.40;;;13.80;99.90;;;;;;5078408;28;20430;-64
2023/10/06 04:40:47;;;;;;;11.63;5.07;;;13.80;99.90;;;;;;5079040;28;20036;-63
2023/10/06 04:43:17;;;;;;;13.70;6.03;;;13.80;99.90;;;;;;5078881;28;20184;-64
2023/10/06 04:45:50;;;;;;;10.32;5.40;;;13.80;99.90;;;;;;5078249;28;20044;-63
2023/10/06 04:48:18;;;;;;;13.02;5.35;;;13.80;99.90;;;;;;5097361;28;20055;-63
2023/10/06 04:50:45;;;;;;;11.35;5.53;;;13.70;99.90;;;;;;5077330;28;20081;-63
2023/10/06 04:53:12;;;;;;;12.85;6.00;;;13.70;99.90;;;;;;5097108;28;20411;-63
2023/10/06 04:55:38;;;;;;;15.55;5.78;;;13.70;99.90;;;;;;5096218;28;20048;-64
2023/10/06 04:58:15;;;;;;;12.98;5.20;;;13.70;99.90;;;;;;5082426;28;20047;-64
2023/10/06 05:00:42;;;;;;;13.52;5.75;;;13.70;99.90;;;;;;5100931;28;20052;-63
2023/10/06 05:03:10;;;;;;;11.95;5.25;;;13.70;99.90;;;;;;5099298;28;20103;-63
2023/10/06 05:05:37;;;;;;;12.15;6.07;;;13.70;99.90;;;;;;5105802;28;20092;-63
2023/10/06 05:08:05;;;;;;;15.18;5.45;;;13.60;99.90;;;;;;5119858;28;20109;-63
2023/10/06 05:10:31;;;;;;;17.17;5.80;;;13.60;99.90;;;;;;5121463;28;20098;-63
2023/10/06 05:13:05;;;;;;;12.85;5.85;;;13.70;99.90;;;;;;5120676;28;20040;-63
2023/10/06 05:15:31;;;;;;;10.82;4.97;;;13.70;99.90;;;;;;5120636;28;20075;-64
2023/10/06 05:17:58;;;;;;;14.50;5.57;;;13.60;99.90;;;;;;5120826;28;20043;-64
2023/10/06 05:20:32;;;;;;;13.65;5.30;;;13.60;99.90;;;;;;5082515;28;20587;-63
2023/10/06 05:23:01;;;;;;;11.95;5.55;;;13.60;99.90;;;;;;5100782;28;20039;-63
2023/10/06 05:25:29;;;;;;;11.50;5.10;;;13.60;99.90;;;;;;5099128;28;20036;-63
2023/10/06 05:27:59;;;;;;;10.80;5.72;;;13.60;99.90;;;;;;5081883;28;20043;-64
2023/10/06 05:30:29;;;;;;;14.80;5.30;;;13.60;99.90;;;;;;5099906;28;20055;-63
2023/10/06 05:32:57;;;;;;;7.90;5.20;;;13.60;99.90;;;;;;5098493;28;20055;-63
2023/10/06 05:35:27;;;;;;;11.27;5.30;;;13.80;99.90;;;;;;5100001;28;20126;-64
2023/10/06 05:37:53;;;;;;;11.32;4.93;;;13.70;99.90;;;;;;5098606;28;20933;-64
2023/10/06 05:40:20;;;;;;;11.02;4.93;;;13.70;99.90;;;;;;5082047;28;20048;-64
2023/10/06 05:42:49;;;;;;;15.50;5.97;;;13.60;99.90;;;;;;5080698;28;20055;-64
2023/10/06 05:45:19;;;;;;;11.40;4.93;;;13.60;99.90;;;;;;5099485;28;20419;-64
2023/10/06 05:47:50;;;;;;;10.63;5.03;;;13.60;99.90;;;;;;5099118;28;20052;-64
2023/10/06 05:50:29;;;;;;;9.25;5.55;;;13.60;99.90;;;;;;5080159;28;20052;-64
2023/10/06 05:53:01;;;;;;;17.20;5.50;;;13.60;99.90;;;;;;5081608;28;20059;-64
2023/10/06 05:55:38;;;;;;;13.30;6.55;;;13.60;99.90;;;;;;5080360;28;20511;-63
2023/10/06 05:58:14;;;;;;;12.52;4.93;;;13.60;99.90;;;;;;5099199;28;20085;-63
2023/10/06 06:00:52;;;;;;;17.40;5.40;;;13.60;99.90;;;;;;5099633;28;20059;-63
2023/10/06 06:03:23;;;;;;;11.35;4.88;;;13.60;99.90;;;;;;5097926;28;20048;-63
2023/10/06 06:05:53;;;;;;;13.82;5.20;;;13.70;99.90;;;;;;5081241;28;20040;-64
2023/10/06 06:08:20;;;;;;;13.85;5.53;;;13.70;99.90;;;;;;5097697;28;20100;-63
2023/10/06 06:10:46;;;;;;;10.63;6.13;;;13.70;99.90;;;;;;5099544;28;20059;-63
2023/10/06 06:13:16;;;;;;;19.23;5.35;;;13.70;99.90;;;;;;5099448;28;20044;-64
2023/10/06 06:15:43;;;;;;;12.20;5.32;;;13.70;99.90;;;;;;5098123;28;20036;-63
2023/10/06 06:18:09;;;;;;;7.03;3.70;;;13.80;99.90;;;;;;5081229;28;20062;-66
2023/10/06 06:20:41;;;;;;;9.45;4.72;;;13.90;99.90;;;;;;5098089;28;20140;-63
2023/10/06 06:23:09;;;;;;;10.45;4.95;;;14.00;99.90;;;;;;5099284;28;20133;-62
2023/10/06 06:25:39;;;;;;;13.10;4.75;;;14.00;99.90;;;;;;5098349;28;20097;-63
2023/10/06 06:28:07;;;;;;;15.95;5.18;;;13.90;99.90;;;;;;5098642;28;20086;-63
2023/10/06 06:30:34;;;;;;;12.35;4.55;;;14.00;99.90;;;;;;5098500;28;20890;-63
2023/10/06 06:33:01;;;;;;;13.63;4.80;;;14.00;99.90;;;;;;5097746;28;20078;-63
2023/10/06 06:35:28;;;;;;;11.20;4.68;;;14.00;99.90;;;;;;5098611;28;20051;-63
2023/10/06 06:38:01;;;;;;;10.73;5.03;;;14.00;99.90;;;;;;5078886;28;20044;-64
2023/10/06 06:40:30;;;;;;;11.82;4.85;;;14.00;99.90;;;;;;5104209;28;20036;-63
2023/10/06 06:42:56;;;;;;;14.45;4.78;;;14.00;99.90;;;;;;5109390;28;20067;-63
2023/10/06 06:45:24;;;;;;;14.60;5.25;;;14.10;99.90;;;;;;5099212;28;20040;-63
2023/10/06 06:47:53;;;;;;;18.52;4.88;;;14.10;99.90;;;;;;5115402;28;20534;-64
2023/10/06 06:50:20;;;;;;;10.35;4.85;;;14.10;99.90;;;;;;5117312;28;20036;-63
2023/10/06 06:52:48;;;;;;;10.68;4.60;;;14.10;99.90;;;;;;5118737;28;20141;-64
2023/10/06 06:55:14;;;;;;;9.75;4.05;;;14.10;99.90;;;;;;5098928;28;20084;-64
2023/10/06 06:57:44;;;;;;;8.10;4.70;;;14.10;99.90;;;;;;5118635;28;20063;-64
2023/10/06 07:00:17;;;;;;;11.77;4.50;;;14.20;99.90;;;;;;5099315;28;20133;-63
2023/10/06 07:02:45;;;;;;;13.68;4.25;;;14.20;99.90;;;;;;5099632;28;20089;-64
2023/10/06 07:05:12;;;;;;;10.30;4.65;;;14.20;99.90;;;;;;5118249;28;20090;-63
2023/10/06 07:07:45;;;;;;;8.13;4.10;;;14.30;99.90;;;;;;5116913;28;20797;-63
2023/10/06 07:10:13;;;;;;;8.57;4.22;;;14.30;99.90;;;;;;5118282;28;20047;-63
2023/10/06 07:12:43;;;;;;;12.07;4.68;;;14.30;99.90;;;;;;5099125;28;20129;-63
2023/10/06 07:15:15;;;;;;;10.43;4.68;;;14.30;99.90;;;;;;5117481;28;20058;-64
2023/10/06 07:17:45;;;;;;;14.70;5.13;;;14.30;99.90;;;;;;5118237;28;20172;-64
2023/10/06 07:20:32;;;;;;;13.05;5.03;;;14.40;99.90;;;;;;5116962;28;20422;-63
2023/10/06 07:23:03;;;;;;;10.63;4.80;;;14.30;99.90;;;;;;5099902;28;20043;-64
2023/10/06 07:25:29;;;;;;;6.88;4.20;;;14.40;99.90;;;;;;5117227;28;20065;-64
2023/10/06 07:27:57;;;;;;;13.15;4.43;;;14.40;99.90;;;;;;5118225;28;20032;-64
2023/10/06 07:30:29;;;;;;;8.63;4.30;;;14.40;99.90;;;;;;5117706;28;20043;-63
2023/10/06 07:32:55;;;;;;;11.63;4.50;;;14.40;99.90;;;;;;5116952;28;20120;-64
2023/10/06 07:35:40;;;;;;;8.77;4.80;;;14.40;99.90;;;;;;5099467;28;20055;-63
2023/10/06 07:38:06;;;;;;;11.55;4.47;;;14.40;99.90;;;;;;5116608;28;20044;-62
2023/10/06 07:40:32;;;;;;;9.85;4.28;;;14.40;99.90;;;;;;5117757;28;20036;-64
2023/10/06 07:43:02;;;;;;;9.73;4.45;;;14.50;99.90;;;;;;5116998;28;20128;-67
2023/10/06 07:45:30;;;;;;;8.15;4.00;;;14.50;99.90;;;;;;5117495;28;20438;-64
2023/10/06 07:47:57;;;;;;;11.88;4.38;;;14.50;99.90;;;;;;5117771;28;20096;-63
2023/10/06 07:50:26;;;;;;;17.48;5.18;;;14.50;99.90;;;;;;5098229;28;20059;-63
2023/10/06 07:52:56;;;;;;;7.97;4.70;;;14.50;99.90;;;;;;5117670;28;20039;-63
2023/10/06 07:55:23;;;;;;;8.43;4.28;;;14.60;99.90;;;;;;5099232;28;20076;-63
2023/10/06 07:57:49;;;;;;;9.43;3.97;;;14.60;99.90;;;;;;5099076;28;20068;-64
2023/10/06 08:00:29;;;;;;;9.18;4.25;;;14.60;99.90;;;;;;5117534;28;20180;-64
2023/10/06 08:03:00;;;;;;;11.70;5.32;;;14.60;99.90;;;;;;5098070;28;20132;-64
2023/10/06 08:05:26;;;;;;;10.77;3.90;;;14.60;99.90;;;;;;5099555;28;20438;-62
2023/10/06 08:07:55;;;;;;;13.20;4.50;;;14.60;99.90;;;;;;5116303;28;20100;-63
2023/10/06 08:10:20;;;;;;;16.38;4.22;;;14.70;99.90;;;;;;5099201;28;20108;-65
2023/10/06 08:12:49;;;;;;;12.30;4.60;;;14.80;99.90;;;;;;5098347;28;20083;-64
2023/10/06 08:15:20;;;;;;;10.82;4.82;;;14.70;99.90;;;;;;5117175;28;20118;-64
2023/10/06 08:17:53;;;;;;;12.55;4.75;;;14.80;99.90;;;;;;5117919;28;20051;-64
2023/10/06 08:20:20;;;;;;;11.20;4.72;;;14.80;99.90;;;;;;5116356;28;20103;-65
2023/10/06 08:22:47;;;;;;;10.15;4.65;;;14.80;99.90;;;;;;5082681;28;20077;-65
2023/10/06 08:25:20;;;;;;;13.98;6.03;;;14.80;99.90;;;;;;5116445;28;20115;-64
2023/10/06 08:27:48;;;;;;;8.90;4.80;;;14.80;99.90;;;;;;5117344;28;20066;-65
2023/10/06 08:30:16;;;;;;;14.00;5.07;;;14.80;99.90;;;;;;5117472;28;20051;-65
2023/10/06 08:32:51;;;;;;;9.40;4.65;;;14.90;99.90;;;;;;5119873;28;20066;-64
2023/10/06 08:35:17;;;;;;;13.05;4.80;;;14.90;99.90;;;;;;5103192;28;20050;-64
2023/10/06 08:37:44;;;;;;;10.57;5.05;;;14.90;99.90;;;;;;5120303;28;20122;-65
2023/10/06 08:40:19;;;;;;;9.32;4.80;;;14.90;99.90;;;;;;5121516;28;20099;-64
2023/10/06 08:42:52;;;;;;;12.32;5.07;;;15.00;99.90;;;;;;5120345;28;20051;-65
2023/10/06 08:45:24;;;;;;;14.63;5.30;;;15.00;99.90;;;;;;5120963;28;20107;-64
2023/10/06 08:47:58;;;;;;;11.35;4.90;;;15.10;99.90;;;;;;5121327;28;20073;-64
2023/10/06 08:50:29;;;;;;;12.07;5.00;;;15.10;99.90;;;;;;5120142;28;20118;-65
2023/10/06 08:52:57;;;;;;;10.13;4.40;;;15.10;99.90;;;;;;5120742;28;20039;-64
2023/10/06 08:55:25;;;;;;;13.10;6.10;;;15.10;99.90;;;;;;5119389;28;20059;-64
2023/10/06 08:57:52;;;;;;;12.35;5.32;;;15.00;99.90;;;;;;5102798;28;20131;-65
2023/10/06 09:00:26;;;;;;;11.38;5.68;;;15.00;99.90;;;;;;5102412;28;20051;-64
2023/10/06 09:02:54;;;;;;;15.75;6.25;;;15.00;99.90;;;;;;5120166;28;20046;-64
2023/10/06 09:05:21;;;;;;;14.57;5.40;;;15.00;99.90;;;;;;5121161;28;20639;-64
2023/10/06 09:08:05;;;;;;;12.20;5.57;;;15.00;99.90;;;;;;5120048;28;20082;-64
2023/10/06 09:10:33;;;;;;;14.10;5.88;;;15.10;99.90;;;;;;5102518;28;20047;-64
2023/10/06 09:13:11;;;;;;;12.13;5.50;;;15.10;99.90;;;;;;5120664;28;20070;-63
2023/10/06 09:15:40;;;;;;;15.25;6.05;;;15.10;99.90;;;;;;5119829;28;20099;-64
2023/10/06 09:18:20;;;;;;;12.40;5.65;;;15.10;99.90;;;;;;5102887;28;20058;-64
2023/10/06 09:20:49;;;;;;;12.80;5.82;;;15.20;99.90;;;;;;5119373;28;20075;-64
2023/10/06 09:23:36;;;;;;;14.35;6.32;;;15.20;99.90;;;;;;5102320;28;20086;-65
2023/10/06 09:26:04;;;;;;;9.27;6.05;;;15.30;99.90;;;;;;5120023;28;20067;-64
2023/10/06 09:28:33;;;;;;;15.85;5.38;;;15.30;99.90;;;;;;5101205;28;20047;-65
2023/10/06 09:31:05;;;;;;;11.93;5.72;;;15.30;99.90;;;;;;5102378;28;20067;-64
2023/10/06 09:33:37;;;;;;;19.13;6.32;;;15.40;99.90;;;;;;5119315;28;20065;-64
2023/10/06 09:36:07;;;;;;;;;;;15.40;99.90;;;;;;5101357;28;20048;-64
2023/10/06 09:38:36;;;;;;;9.35;5.57;;;15.40;99.90;;;;;;5105907;28;20299;-64
2023/10/06 09:41:02;;;;;;;11.00;5.43;;;15.50;99.90;;;;;;5099464;28;20430;-63
2023/10/06 09:43:33;;;;;;;15.52;5.55;;;15.60;99.90;;;;;;5098636;28;20052;-64
2023/10/06 09:46:06;;;;;;;12.82;5.22;;;15.60;99.90;;;;;;5098656;28;20060;-64
2023/10/06 09:48:36;;;;;;;11.38;5.00;;;15.60;99.90;;;;;;5081170;28;20040;-64
2023/10/06 09:51:08;;;;;;;11.68;5.88;;;15.60;99.90;;;;;;5098448;28;20040;-64
2023/10/06 09:53:40;;;;;;;;;;;15.70;99.90;;;;;;5081631;28;20044;-65
2023/10/06 09:56:09;;;;;;;8.52;5.10;;;15.70;99.90;;;;;;5099500;28;19943;-64
2023/10/06 09:58:41;;;;;;;10.65;4.95;;;15.80;99.90;;;;;;5098552;28;20055;-64
2023/10/06 10:01:10;;;;;;;9.97;4.63;;;15.80;99.90;;;;;;5099565;28;20044;-64
2023/10/06 10:03:37;;;;;;;14.50;5.03;;;15.90;99.90;;;;;;5097999;28;20320;-64
2023/10/06 10:06:06;;;;;;;10.65;5.25;;;16.00;99.90;;;;;;5064303;28;20048;-64
2023/10/06 10:08:34;;;;;;;12.82;4.97;;;16.00;99.90;;;;;;5098366;28;20051;-64
2023/10/06 10:11:14;;;;;;;13.10;4.53;;;16.00;99.90;;;;;;5098871;28;20036;-64
2023/10/06 10:13:54;;;;;;;10.70;4.70;;;16.10;99.90;;;;;;5080841;28;20048;-65
2023/10/06 10:16:36;;;;;;;14.20;5.55;;;16.20;99.90;;;;;;5097773;28;20113;-64
2023/10/06 10:19:07;;;;;;;8.32;4.47;;;16.30;99.90;;;;;;5086219;28;20077;-64
2023/10/06 10:21:35;;;;;;;17.17;5.20;;;16.30;99.90;;;;;;5099070;28;20090;-65
2023/10/06 10:24:05;;;;;;;9.88;4.50;;;16.40;99.90;;;;;;5097957;28;20117;-64
2023/10/06 10:26:37;;;;;;;13.68;4.47;;;16.60;99.90;;;;;;5099109;28;20058;-64
2023/10/06 10:29:12;;;;;;;10.98;4.43;;;16.70;99.90;;;;;;5079852;28;20147;-64
2023/10/06 10:31:56;;;;;;;10.30;4.63;;;16.70;99.90;;;;;;5099198;28;20109;-64
2023/10/06 10:34:25;;;;;;;11.32;4.63;;;16.80;99.90;;;;;;5104717;28;20479;-64
2023/10/06 10:37:08;;;;;;;9.13;4.30;;;16.80;99.90;;;;;;5117663;28;20043;-64
2023/10/06 10:39:47;;;;;;;9.27;3.75;;;16.80;99.90;;;;;;5091823;28;20050;-63
2023/10/06 10:42:34;;;;;;;12.00;4.20;;;16.80;99.90;;;;;;5097497;28;20044;-64
2023/10/06 10:45:44;;;;;;;9.35;4.05;;;16.90;99.90;;;;;;5098098;28;20059;-64
2023/10/06 10:48:14;;;;;;;9.63;4.07;;;16.90;99.90;;;;;;4996368;28;20061;-64
2023/10/06 10:50:52;;;;;;;9.95;4.00;;;17.00;99.90;;;;;;5085474;28;20091;-63
2023/10/06 10:53:20;;;;;;;9.52;3.55;;;17.00;99.90;;;;;;5097966;28;20051;-64
2023/10/06 10:55:47;;;;;;;7.00;3.30;;;17.00;99.90;;;;;;5114990;28;20055;-64
2023/10/06 10:58:42;;;;;;;6.57;3.50;;;17.10;99.90;;;;;;5117893;28;20044;-64
2023/10/06 11:01:27;;;;;;;11.57;3.97;;;17.20;99.90;;;;;;5118432;28;20046;-64
2023/10/06 11:04:30;;;;;;;12.40;3.63;;;17.20;99.90;;;;;;5098984;28;20082;-64
2023/10/06 11:07:13;;;;;;;7.18;2.95;;;17.40;99.90;;;;;;5117081;28;20409;-64
2023/10/06 11:09:52;;;;;;;11.60;3.42;;;17.40;99.90;;;;;;5118042;28;20055;-64
2023/10/06 11:12:19;;;;;;;8.32;3.83;;;17.40;99.90;;;;;;5098537;28;20045;-63
2023/10/06 11:14:45;;;;;;;7.50;3.00;;;17.50;99.90;;;;;;5099613;28;20520;-64
2023/10/06 11:17:12;;;;;;;7.00;3.00;;;17.50;99.90;;;;;;5117432;28;20498;-64
2023/10/06 11:19:42;;;;;;;11.10;3.78;;;17.60;99.90;;;;;;5117311;28;20046;-64
2023/10/06 11:22:19;;;;;;;10.02;3.15;;;17.60;99.90;;;;;;5098942;28;20052;-64
2023/10/06 11:24:50;;;;;;;4.65;2.83;;;17.60;99.90;;;;;;5116749;28;20047;-64
2023/10/06 11:27:17;;;;;;;7.53;3.40;;;17.60;99.90;;;;;;5117975;28;20039;-64
2023/10/06 11:29:46;;;;;;;6.13;3.42;;;17.60;99.90;;;;;;5116955;28;20044;-64
2023/10/06 11:32:13;;;;;;;9.18;3.00;;;17.60;99.90;;;;;;5117504;28;20093;-64
2023/10/06 11:34:43;;;;;;;8.23;3.70;;;17.60;99.90;;;;;;5117424;28;20404;-64
2023/10/06 11:37:08;;;;;;;8.68;2.90;;;17.50;99.90;;;;;;5116626;28;20044;-64
2023/10/06 11:39:35;;;;;;;8.43;3.08;;;17.60;99.90;;;;;;5117777;28;20035;-64
2023/10/06 11:42:23;;;;;;;12.15;3.30;;;17.60;99.90;;;;;;5116451;28;20036;-64
2023/10/06 11:44:52;;;;;;;7.13;3.08;;;17.60;99.90;;;;;;5099271;28;20108;-64
2023/10/06 11:47:21;;;;;;;10.55;4.10;;;17.60;99.90;;;;;;5117119;28;20507;-64
2023/10/06 11:50:01;;;;;;;9.82;3.67;;;17.60;99.90;;;;;;5116427;28;20043;-64
2023/10/06 11:52:27;;;;;;;8.93;3.40;;;17.60;99.90;;;;;;5117580;28;20043;-64
2023/10/06 11:54:53;;;;;;;9.40;3.67;;;17.60;99.90;;;;;;5116118;28;20054;-64
2023/10/06 11:57:39;;;;;;;9.95;3.88;;;17.60;99.90;;;;;;5116958;28;20121;-64
2023/10/06 12:00:10;;;;;;;9.25;3.88;;;17.60;99.90;;;;;;5098773;28;20104;-64
2023/10/06 12:02:53;;;;;;;11.63;3.60;;;17.60;99.90;;;;;;5097249;28;20070;-64
2023/10/06 12:05:21;;;;;;;14.23;3.03;;;17.70;99.90;;;;;;5096382;28;20071;-64
2023/10/06 12:07:49;;;;;;;7.70;3.25;;;17.70;99.90;;;;;;5108586;28;20062;-63
2023/10/06 12:10:20;;;;;;;7.22;2.60;;;17.80;99.90;;;;;;5112728;28;20035;-64
2023/10/06 12:12:47;;;;;;;15.43;3.90;;;17.70;99.90;;;;;;5098244;28;20051;-64
2023/10/06 12:15:14;;;;;;;8.23;3.92;;;17.70;99.90;;;;;;5102218;28;20051;-65
2023/10/06 12:17:41;;;;;;;11.20;3.13;;;17.70;99.90;;;;;;5117172;28;20481;-65
2023/10/06 12:20:13;;;;;;;11.55;3.22;;;17.80;99.90;;;;;;5115740;28;20052;-64
2023/10/06 12:22:43;;;;;;;13.70;3.25;;;17.80;99.90;;;;;;5116821;28;20065;-64
2023/10/06 12:25:12;;;;;;;10.48;4.18;;;17.90;99.90;;;;;;5108266;28;20047;-64
2023/10/06 12:27:44;;;;;;;8.23;3.65;;;17.90;99.90;;;;;;5119113;28;20126;-64
2023/10/06 12:30:14;;;;;;;9.90;3.80;;;17.90;99.90;;;;;;5137312;28;20078;-65
2023/10/06 12:32:41;;;;;;;8.13;3.78;;;17.90;99.90;;;;;;5136151;28;20051;-64
2023/10/06 12:35:08;;;;;;;9.52;3.53;;;18.00;99.90;;;;;;5137618;28;20577;-65
2023/10/06 12:37:40;;;;;;;8.65;3.08;;;18.00;99.90;;;;;;5136602;28;20050;-64
2023/10/06 12:40:11;;;;;;;9.27;3.15;;;18.00;99.90;;;;;;5102257;28;20051;-64
2023/10/06 12:42:38;;;;;;;10.90;3.55;;;18.00;99.90;;;;;;5137152;28;20099;-64
2023/10/06 12:45:08;;;;;;;7.75;3.42;;;18.10;99.90;;;;;;5137565;28;20122;-64
2023/10/06 12:47:34;;;;;;;7.88;4.05;;;18.10;99.90;;;;;;5135741;28;20401;-65
2023/10/06 12:50:05;;;;;;;12.68;3.78;;;18.20;99.90;;;;;;5136563;28;20668;-64
2023/10/06 12:52:34;;;;;;;13.95;4.00;;;18.20;99.90;;;;;;5137314;28;20609;-64
2023/10/06 12:55:05;;;;;;;8.32;3.60;;;18.30;99.90;;;;;;5136433;28;20135;-64
2023/10/06 12:57:34;;;;;;;9.15;3.83;;;18.30;99.90;;;;;;5137553;28;20044;-64
2023/10/06 13:00:01;;;;;;;12.80;4.20;;;18.30;99.90;;;;;;5137109;28;20039;-64
2023/10/06 13:02:26;;;;;;;10.13;3.47;;;18.40;99.90;;;;;;5136651;28;20128;-64
2023/10/06 13:04:57;;;;;;;10.00;3.97;;;18.40;99.90;;;;;;5137377;28;20043;-64
2023/10/06 13:07:23;;;;;;;10.10;3.60;;;18.50;99.90;;;;;;5136230;28;20043;-64
2023/10/06 13:09:49;;;;;;;7.38;3.38;;;18.50;99.90;;;;;;5137502;28;20043;-64